createdAt,value
2023-01-18T00:06:29.267Z,73.94
2023-01-18T00:10:40.630Z,74.02
2023-01-18T00:15:09.761Z,73.96
2023-01-18T00:19:21.269Z,73.66
2023-01-18T00:45:19.633Z,73.74
2023-01-18T00:49:48.410Z,73.72
2023-01-18T00:54:17.079Z,73.77
2023-01-18T00:58:46.302Z,73.85
2023-01-18T01:03:16.552Z,73.87
2023-01-18T01:43:23.043Z,74.60
2023-01-18T01:47:55.098Z,74.47
2023-01-18T02:14:07.966Z,74.98
2023-01-18T02:18:55.151Z,75.14
2023-01-18T02:55:26.948Z,74.62
2023-01-18T03:00:04.089Z,74.81
2023-01-18T03:04:32.785Z,74.90
2023-01-18T03:12:58.603Z,74.54
2023-01-18T03:17:30.877Z,74.79
2023-01-18T03:22:00.643Z,74.57
2023-01-18T03:43:57.293Z,74.71
2023-01-18T03:48:26.605Z,74.50
2023-01-18T03:52:58.489Z,74.71
2023-01-18T04:14:39.090Z,74.89
2023-01-18T04:18:57.090Z,75.10
2023-01-18T04:23:12.004Z,75.11
2023-01-18T04:27:41.199Z,74.99
2023-01-18T04:32:10.737Z,74.97
2023-01-18T04:49:22.124Z,74.89
2023-01-18T04:53:42.338Z,74.98
2023-01-18T04:58:10.975Z,74.94
2023-01-18T05:02:41.170Z,75.06
2023-01-18T05:07:10.266Z,74.98
2023-01-18T05:11:32.002Z,75.05
2023-01-18T05:37:36.103Z,74.80
2023-01-18T05:41:48.827Z,75.06
2023-01-18T05:46:08.938Z,74.97
2023-01-18T06:03:27.683Z,75.17
2023-01-18T06:07:56.939Z,75.46
2023-01-18T06:12:27.158Z,75.39
2023-01-18T06:16:54.389Z,75.22
2023-01-18T06:25:17.506Z,75.32
2023-01-18T06:29:46.824Z,75.24
2023-01-18T06:34:12.818Z,75.36
2023-01-18T06:56:53.873Z,75.38
2023-01-18T07:01:23.255Z,75.57
2023-01-18T07:05:52.062Z,75.45
2023-01-18T07:10:16.212Z,75.47
2023-01-18T07:14:39.083Z,75.49
2023-01-18T07:19:07.433Z,75.70
2023-01-18T07:40:26.607Z,75.45
2023-01-18T07:44:55.450Z,75.34
2023-01-18T07:49:07.528Z,75.47
2023-01-18T07:53:19.933Z,75.36
2023-01-18T07:57:28.486Z,75.74
2023-01-18T08:01:57.345Z,75.69
2023-01-18T08:06:26.781Z,75.58
2023-01-18T08:09:59.016Z,75.37
2023-01-18T08:14:19.332Z,75.31
2023-01-18T08:44:39.315Z,75.63
2023-01-18T08:49:08.051Z,75.82
2023-01-18T08:53:37.217Z,75.43
2023-01-18T08:58:07.363Z,75.81
2023-01-18T09:19:19.095Z,75.91
2023-01-18T09:23:47.846Z,76.02
2023-01-18T09:28:09.753Z,76.10
2023-01-18T09:32:13.667Z,75.83
2023-01-18T09:36:41.155Z,75.73
2023-01-18T09:41:05.920Z,75.71
2023-01-18T09:58:15.350Z,76.02
2023-01-18T10:02:26.175Z,76.12
2023-01-18T10:06:56.484Z,76.16
2023-01-18T10:11:30.834Z,76.44
2023-01-18T10:16:03.845Z,76.09
2023-01-18T10:42:19.374Z,75.89
2023-01-18T10:46:54.080Z,75.88
2023-01-18T10:51:14.626Z,76.17
2023-01-18T11:08:53.333Z,75.95
2023-01-18T11:13:26.271Z,75.96
2023-01-18T11:17:41.097Z,75.78
2023-01-18T11:22:19.290Z,75.66
2023-01-18T11:26:40.286Z,75.97
2023-01-18T12:07:24.728Z,75.96
2023-01-18T12:11:45.566Z,76.15
2023-01-18T12:16:18.907Z,76.03
2023-01-18T12:21:06.611Z,75.82
2023-01-18T12:25:45.803Z,75.84
2023-01-18T12:52:25.453Z,76.19
2023-01-18T12:56:16.041Z,75.99
2023-01-18T13:00:46.425Z,76.10
2023-01-18T13:22:29.763Z,75.73
2023-01-18T13:26:31.790Z,76.03
2023-01-18T13:31:02.119Z,75.92
2023-01-18T13:35:38.820Z,75.97
2023-01-18T13:39:33.072Z,75.75
2023-01-18T13:44:14.205Z,76.04
2023-01-18T14:06:05.697Z,76.08
2023-01-18T14:18:50.270Z,75.78
2023-01-18T14:50:47.970Z,75.79
2023-01-18T15:29:49.199Z,75.58
2023-01-18T15:33:30.442Z,75.73
2023-01-18T15:38:05.525Z,75.60
2023-01-18T15:42:22.601Z,75.46
2023-01-18T16:20:55.323Z,75.29
2023-01-18T16:25:43.488Z,75.20
2023-01-18T16:29:45.107Z,74.99
2023-01-18T16:33:36.525Z,75.14
2023-01-18T16:37:44.826Z,75.11
2023-01-18T16:42:13.823Z,75.11
2023-01-18T16:46:12.307Z,75.23
2023-01-18T16:50:32.780Z,75.15
2023-01-18T16:54:55.188Z,74.75
2023-01-18T17:41:22.860Z,74.61
2023-01-18T17:45:59.797Z,74.66
2023-01-18T17:50:30.284Z,74.57
2023-01-18T17:54:38.270Z,74.49
2023-01-18T17:58:57.300Z,74.37
2023-01-18T18:02:38.624Z,74.47
2023-01-18T18:05:52.509Z,74.45
2023-01-18T18:09:51.450Z,74.92
2023-01-18T18:14:03.151Z,74.52
2023-01-18T18:21:59.691Z,74.61
2023-01-18T18:26:21.234Z,74.29
2023-01-18T18:29:54.188Z,74.32
2023-01-18T18:34:08.418Z,74.44
2023-01-18T18:38:10.026Z,74.51
2023-01-18T18:42:24.489Z,74.29
2023-01-18T18:46:26.245Z,74.30
2023-01-18T18:50:54.779Z,74.30
2023-01-18T18:55:10.443Z,74.61
2023-01-18T18:59:04.868Z,74.18
2023-01-18T19:03:19.315Z,74.29
2023-01-18T19:07:20.258Z,74.43
2023-01-18T19:31:22.408Z,74.12
2023-01-18T19:35:33.704Z,74.19
2023-01-18T19:47:35.619Z,73.99
2023-01-18T19:51:57.730Z,74.07
2023-01-18T20:00:21.200Z,74.10
2023-01-18T20:16:32.285Z,74.10
2023-01-18T20:38:00.439Z,74.00
2023-01-18T20:42:27.462Z,73.87
2023-01-18T20:46:35.320Z,73.57
2023-01-18T20:54:34.761Z,73.99
2023-01-18T20:58:43.964Z,73.79
2023-01-18T21:02:25.075Z,74.08
2023-01-18T21:06:25.211Z,73.80
2023-01-18T21:31:23.526Z,73.74
2023-01-18T21:35:52.780Z,73.74
2023-01-18T21:40:21.300Z,73.96
2023-01-18T21:44:40.010Z,73.99
2023-01-18T21:48:53.366Z,73.93
2023-01-18T21:52:57.199Z,73.75
2023-01-18T21:56:49.461Z,73.90
2023-01-18T22:21:02.981Z,73.97
2023-01-18T22:24:52.503Z,74.06
2023-01-18T22:28:54.800Z,73.97
2023-01-18T22:33:15.992Z,74.33
2023-01-18T23:10:44.308Z,74.02
2023-01-18T23:14:56.772Z,73.97
2023-01-18T23:32:08.794Z,74.14
2023-01-18T23:35:31.974Z,73.83
2023-01-18T23:39:30.726Z,74.06
2023-01-18T23:43:56.521Z,74.25
2023-01-18T23:48:24.341Z,74.23
2023-01-18T23:52:52.115Z,74.51
2023-01-18T23:57:17.713Z,74.17
